KOLY

Details ICAO KOLY
Name OLNEY NOBLE
Region United States
Timezone America/Chicago (UTC-6.0)
Plans Departing 2
Arriving 0
Stats Elevation 482 ft / 147 m (AMSL)
Location 38.721751° -88.176352°
Runways 2
Magnetic Variation 3.066° W
Sunrise 2017-12-15 13:05:11 UTC / 2017-12-15 07:05:11 Local
Sunset 2017-12-15 22:33:33 UTC / 2017-12-15 16:33:33 Local
Advertisement - Login to hide

Runways

ID Width Length Bearing (true) Bearing (mag) Surface Threshold Offset Overrun Length
03 60 ft / 18 m 3,600 ft / 1,097 m 35.76° 38.83° Asphalt 0 ft / 0 m 0 ft / 0 m
11 75 ft / 23 m 4,094 ft / 1,248 m 107.24° 110.31° Asphalt 0 ft / 0 m 0 ft / 0 m
21 60 ft / 18 m 3,600 ft / 1,097 m 215.77° 218.84° Asphalt 0 ft / 0 m 0 ft / 0 m
29 75 ft / 23 m 4,094 ft / 1,248 m 287.25° 290.32° Asphalt 0 ft / 0 m 0 ft / 0 m

Map

Weather


0- 5 10 15 20 25 30 35+ Temperature / ° C

Clouds and Precipitation
Forecast for 2017-12-16 06:00 UTC. Updated 35 minutes ago

Ground ~20,000 ft ~40,000 ft Winds

METAR

KOLY 160135Z AUTO 20003KT 10SM CLR 00/M06 A3009 RMK AO2 T00001059

TAF

Not found

Frequencies

Recorded 119.27 MHz AWOS 3
Unicom 123.00 MHz CTAF/UNICOM
Warning: Do not use this data for real-world aviation or navigation. No guarantee of current accuracy is given.